High Performance — A8HM2 — position and weather

sailwx.info

Track history (hours):
 
Tides and Currents Weather Stations Pressure Air Temp Water Temp Dewpoint Dewpoint Depression Visibility Wind Speed Wind Dir Waves Ship Positions

High Performance

Last reported at 2017-Dec-04 03:12 UTC. Time now 2017-Dec-12 19:45 UTC.
Position N 30°01' W 093°59'.
Warning: this ship's position is 8 days out of date.

Length 182 m; draft 10.2 m.

Type: Tanker. MMSI: 636012731.

Date/timePositionNaut miles runAvg speedWind from/ knotsBaromVisibWave heightAir tempDewpointWater temp
2017-Dec-04 03:12N 30°01' W 093°59'0 0.0
2017-Dec-04 02:06N 30°01' W 093°59'0 0.0
2017-Dec-04 02:00N 30°01' W 093°59'0 0.0
2017-Dec-04 01:30N 30°01' W 093°59'0 0.0
2017-Dec-04 01:00N 30°01' W 093°59'0 0.0
2017-Dec-04 00:28N 30°01' W 093°59'0 0.0
2017-Dec-03 23:58N 30°01' W 093°59'0 0.0
2017-Dec-03 23:22N 30°01' W 093°59'0 0.0
2017-Dec-03 21:54N 30°01' W 093°59'0 0.0
2017-Dec-03 21:29N 30°01' W 093°59'3 2.8
2017-Dec-03 20:34N 30°02' W 094°02'0 4.6
2017-Dec-03 20:30N 30°02' W 094°02'3 4.5
2017-Dec-03 19:47N 30°05' W 094°04'0 0.4
2017-Dec-03 19:28N 30°05' W 094°04'  
2017-Nov-30 14:07N 30°05' W 094°04'0 0.0
2017-Nov-30 13:49N 30°05' W 094°04'0 0.0
2017-Nov-30 12:34N 30°05' W 094°04'0 0.0
2017-Nov-30 12:22N 30°05' W 094°04'0 0.0
2017-Nov-30 11:58N 30°05' W 094°04'0 0.0
2017-Nov-30 11:10N 30°05' W 094°04'0 0.0
2017-Nov-30 10:58N 30°05' W 094°04'0 0.0
2017-Nov-30 10:07N 30°05' W 094°04'0 0.0
2017-Nov-30 09:58N 30°05' W 094°04'0 0.0
2017-Nov-30 09:22N 30°05' W 094°04'0 0.0
2017-Nov-30 08:58N 30°05' W 094°04'0 0.0
2017-Nov-30 08:28N 30°05' W 094°04'13 1.1
2017-Nov-29 19:41N 29°55' W 093°53'1 7.8
2017-Nov-29 19:30N 29°54' W 093°54'  
Track history (hours):
 
Tides and Currents Weather Stations Pressure Air Temp Water Temp Dewpoint Dewpoint Depression Visibility Wind Speed Wind Dir Waves Ship Positions

High Performance

Last reported at 2017-Dec-04 03:12 UTC. Time now 2017-Dec-12 19:45 UTC.
Position N 30°01' W 093°59'.
Warning: this ship's position is 8 days out of date.

Length 182 m; draft 10.2 m.

Type: Tanker. MMSI: 636012731.

Date/timePositionNaut miles runAvg speedWind from/ knotsBaromVisibWave heightAir tempDewpointWater temp
2017-Dec-04 03:12N 30°01' W 093°59'0 0.0
2017-Dec-04 02:06N 30°01' W 093°59'0 0.0
2017-Dec-04 02:00N 30°01' W 093°59'0 0.0
2017-Dec-04 01:30N 30°01' W 093°59'0 0.0
2017-Dec-04 01:00N 30°01' W 093°59'0 0.0
2017-Dec-04 00:28N 30°01' W 093°59'0 0.0
2017-Dec-03 23:58N 30°01' W 093°59'0 0.0
2017-Dec-03 23:22N 30°01' W 093°59'0 0.0
2017-Dec-03 21:54N 30°01' W 093°59'0 0.0
2017-Dec-03 21:29N 30°01' W 093°59'3 2.8
2017-Dec-03 20:34N 30°02' W 094°02'0 4.6
2017-Dec-03 20:30N 30°02' W 094°02'3 4.5
2017-Dec-03 19:47N 30°05' W 094°04'0 0.4
2017-Dec-03 19:28N 30°05' W 094°04'  
2017-Nov-30 14:07N 30°05' W 094°04'0 0.0
2017-Nov-30 13:49N 30°05' W 094°04'0 0.0
2017-Nov-30 12:34N 30°05' W 094°04'0 0.0
2017-Nov-30 12:22N 30°05' W 094°04'0 0.0
2017-Nov-30 11:58N 30°05' W 094°04'0 0.0
2017-Nov-30 11:10N 30°05' W 094°04'0 0.0
2017-Nov-30 10:58N 30°05' W 094°04'0 0.0
2017-Nov-30 10:07N 30°05' W 094°04'0 0.0
2017-Nov-30 09:58N 30°05' W 094°04'0 0.0
2017-Nov-30 09:22N 30°05' W 094°04'0 0.0
2017-Nov-30 08:58N 30°05' W 094°04'0 0.0
2017-Nov-30 08:28N 30°05' W 094°04'13 1.1
2017-Nov-29 19:41N 29°55' W 093°53'1 7.8
2017-Nov-29 19:30N 29°54' W 093°54'  

Dump ship's entire track history